sensor_id;sensor_type;location;lat;lon;timestamp;P1;durP1;ratioP1;P2;durP2;ratioP2
5351;SDS011;2698;51.454;6.736;2023-04-16T00:01:30;25.77;;;14.47;;
5351;SDS011;2698;51.454;6.736;2023-04-16T00:03:57;20.93;;;13.40;;
5351;SDS011;2698;51.454;6.736;2023-04-16T00:06:24;30.60;;;14.73;;
5351;SDS011;2698;51.454;6.736;2023-04-16T00:08:52;36.90;;;15.73;;
5351;SDS011;2698;51.454;6.736;2023-04-16T00:11:19;29.97;;;15.90;;
5351;SDS011;2698;51.454;6.736;2023-04-16T00:13:46;25.40;;;15.30;;
5351;SDS011;2698;51.454;6.736;2023-04-16T00:16:13;29.07;;;14.73;;
5351;SDS011;2698;51.454;6.736;2023-04-16T00:18:42;32.37;;;14.73;;
5351;SDS011;2698;51.454;6.736;2023-04-16T00:21:09;27.07;;;14.33;;
5351;SDS011;2698;51.454;6.736;2023-04-16T00:23:36;29.47;;;14.03;;
5351;SDS011;2698;51.454;6.736;2023-04-16T00:26:03;30.83;;;14.57;;
5351;SDS011;2698;51.454;6.736;2023-04-16T00:28:31;28.27;;;15.60;;
5351;SDS011;2698;51.454;6.736;2023-04-16T00:30:59;34.20;;;17.10;;
5351;SDS011;2698;51.454;6.736;2023-04-16T00:33:26;28.03;;;14.60;;
5351;SDS011;2698;51.454;6.736;2023-04-16T00:35:55;35.40;;;16.20;;
5351;SDS011;2698;51.454;6.736;2023-04-16T00:38:22;27.50;;;14.23;;
5351;SDS011;2698;51.454;6.736;2023-04-16T00:40:54;31.40;;;15.07;;
5351;SDS011;2698;51.454;6.736;2023-04-16T00:43:22;29.63;;;13.20;;
5351;SDS011;2698;51.454;6.736;2023-04-16T00:45:50;27.87;;;13.07;;
5351;SDS011;2698;51.454;6.736;2023-04-16T00:48:18;37.03;;;12.70;;
5351;SDS011;2698;51.454;6.736;2023-04-16T00:50:46;28.97;;;11.40;;
5351;SDS011;2698;51.454;6.736;2023-04-16T00:53:15;37.87;;;12.10;;
5351;SDS011;2698;51.454;6.736;2023-04-16T00:55:42;37.80;;;11.40;;
5351;SDS011;2698;51.454;6.736;2023-04-16T00:58:09;41.77;;;12.13;;
5351;SDS011;2698;51.454;6.736;2023-04-16T01:00:36;26.30;;;11.60;;
5351;SDS011;2698;51.454;6.736;2023-04-16T01:03:04;31.70;;;13.37;;
5351;SDS011;2698;51.454;6.736;2023-04-16T01:05:31;33.60;;;12.30;;
5351;SDS011;2698;51.454;6.736;2023-04-16T01:07:58;38.57;;;13.23;;
5351;SDS011;2698;51.454;6.736;2023-04-16T01:10:27;53.63;;;17.40;;
5351;SDS011;2698;51.454;6.736;2023-04-16T01:12:54;39.63;;;16.60;;
5351;SDS011;2698;51.454;6.736;2023-04-16T01:15:21;42.53;;;16.07;;
5351;SDS011;2698;51.454;6.736;2023-04-16T01:17:49;34.47;;;17.60;;
5351;SDS011;2698;51.454;6.736;2023-04-16T01:20:16;42.80;;;16.47;;
5351;SDS011;2698;51.454;6.736;2023-04-16T01:22:44;44.63;;;16.00;;
5351;SDS011;2698;51.454;6.736;2023-04-16T01:25:12;36.37;;;16.33;;
5351;SDS011;2698;51.454;6.736;2023-04-16T01:27:40;41.87;;;15.77;;
5351;SDS011;2698;51.454;6.736;2023-04-16T01:30:08;44.50;;;19.53;;
5351;SDS011;2698;51.454;6.736;2023-04-16T01:32:35;43.13;;;19.27;;
5351;SDS011;2698;51.454;6.736;2023-04-16T01:35:02;30.40;;;18.40;;
5351;SDS011;2698;51.454;6.736;2023-04-16T01:37:30;30.80;;;17.17;;
5351;SDS011;2698;51.454;6.736;2023-04-16T01:39:58;33.57;;;17.40;;
5351;SDS011;2698;51.454;6.736;2023-04-16T01:42:25;41.90;;;19.67;;
5351;SDS011;2698;51.454;6.736;2023-04-16T01:44:52;49.60;;;21.43;;
5351;SDS011;2698;51.454;6.736;2023-04-16T01:47:20;38.90;;;20.80;;
5351;SDS011;2698;51.454;6.736;2023-04-16T01:49:47;41.07;;;22.07;;
5351;SDS011;2698;51.454;6.736;2023-04-16T01:52:14;52.13;;;22.87;;
5351;SDS011;2698;51.454;6.736;2023-04-16T01:54:41;44.77;;;23.60;;
5351;SDS011;2698;51.454;6.736;2023-04-16T01:57:09;47.13;;;22.77;;
5351;SDS011;2698;51.454;6.736;2023-04-16T01:59:37;56.30;;;25.87;;
5351;SDS011;2698;51.454;6.736;2023-04-16T02:02:05;58.60;;;24.57;;
5351;SDS011;2698;51.454;6.736;2023-04-16T02:04:34;50.10;;;24.57;;
5351;SDS011;2698;51.454;6.736;2023-04-16T02:07:02;51.50;;;24.17;;
5351;SDS011;2698;51.454;6.736;2023-04-16T02:09:29;54.63;;;23.40;;
5351;SDS011;2698;51.454;6.736;2023-04-16T02:11:56;46.80;;;24.97;;
5351;SDS011;2698;51.454;6.736;2023-04-16T02:14:24;52.97;;;26.27;;
5351;SDS011;2698;51.454;6.736;2023-04-16T02:16:51;54.60;;;26.70;;
5351;SDS011;2698;51.454;6.736;2023-04-16T02:19:18;59.53;;;26.57;;
5351;SDS011;2698;51.454;6.736;2023-04-16T02:21:46;50.97;;;29.67;;
5351;SDS011;2698;51.454;6.736;2023-04-16T02:24:13;65.30;;;26.33;;
5351;SDS011;2698;51.454;6.736;2023-04-16T02:26:40;63.53;;;31.17;;
5351;SDS011;2698;51.454;6.736;2023-04-16T02:29:07;47.83;;;28.33;;
5351;SDS011;2698;51.454;6.736;2023-04-16T02:31:35;64.50;;;27.40;;
5351;SDS011;2698;51.454;6.736;2023-04-16T02:34:03;53.10;;;28.90;;
5351;SDS011;2698;51.454;6.736;2023-04-16T02:36:30;60.07;;;30.40;;
5351;SDS011;2698;51.454;6.736;2023-04-16T02:38:57;57.13;;;29.80;;
5351;SDS011;2698;51.454;6.736;2023-04-16T02:41:27;57.80;;;27.50;;
5351;SDS011;2698;51.454;6.736;2023-04-16T02:43:55;53.23;;;27.00;;
5351;SDS011;2698;51.454;6.736;2023-04-16T02:46:22;53.23;;;24.90;;
5351;SDS011;2698;51.454;6.736;2023-04-16T02:48:50;47.60;;;28.00;;
5351;SDS011;2698;51.454;6.736;2023-04-16T02:51:17;51.60;;;26.40;;
5351;SDS011;2698;51.454;6.736;2023-04-16T02:53:44;66.60;;;25.90;;
5351;SDS011;2698;51.454;6.736;2023-04-16T02:56:11;43.67;;;26.17;;
5351;SDS011;2698;51.454;6.736;2023-04-16T02:58:39;42.03;;;24.30;;
5351;SDS011;2698;51.454;6.736;2023-04-16T03:01:06;53.07;;;22.93;;
5351;SDS011;2698;51.454;6.736;2023-04-16T03:03:33;55.53;;;26.57;;
5351;SDS011;2698;51.454;6.736;2023-04-16T03:06:01;43.97;;;25.83;;
5351;SDS011;2698;51.454;6.736;2023-04-16T03:08:28;53.93;;;27.37;;
5351;SDS011;2698;51.454;6.736;2023-04-16T03:10:56;54.53;;;26.70;;
5351;SDS011;2698;51.454;6.736;2023-04-16T03:13:23;59.87;;;27.23;;
5351;SDS011;2698;51.454;6.736;2023-04-16T03:15:50;57.33;;;26.07;;
5351;SDS011;2698;51.454;6.736;2023-04-16T03:18:17;45.40;;;25.23;;
5351;SDS011;2698;51.454;6.736;2023-04-16T03:20:44;59.60;;;25.10;;
5351;SDS011;2698;51.454;6.736;2023-04-16T03:23:13;48.13;;;24.63;;
5351;SDS011;2698;51.454;6.736;2023-04-16T03:25:40;54.73;;;27.77;;
5351;SDS011;2698;51.454;6.736;2023-04-16T03:28:10;59.43;;;31.50;;
5351;SDS011;2698;51.454;6.736;2023-04-16T03:30:37;52.13;;;27.00;;
5351;SDS011;2698;51.454;6.736;2023-04-16T03:33:04;52.33;;;26.57;;
5351;SDS011;2698;51.454;6.736;2023-04-16T03:35:31;48.17;;;26.10;;
5351;SDS011;2698;51.454;6.736;2023-04-16T03:37:58;46.30;;;25.67;;
5351;SDS011;2698;51.454;6.736;2023-04-16T03:40:27;67.90;;;28.77;;
5351;SDS011;2698;51.454;6.736;2023-04-16T03:42:54;64.73;;;28.07;;
5351;SDS011;2698;51.454;6.736;2023-04-16T03:45:21;42.80;;;23.10;;
5351;SDS011;2698;51.454;6.736;2023-04-16T03:47:48;46.83;;;26.67;;
5351;SDS011;2698;51.454;6.736;2023-04-16T03:50:16;53.60;;;25.60;;
5351;SDS011;2698;51.454;6.736;2023-04-16T03:52:44;53.87;;;27.27;;
5351;SDS011;2698;51.454;6.736;2023-04-16T03:55:13;58.70;;;28.63;;
5351;SDS011;2698;51.454;6.736;2023-04-16T03:57:41;63.90;;;30.90;;
5351;SDS011;2698;51.454;6.736;2023-04-16T04:00:09;66.43;;;30.13;;
5351;SDS011;2698;51.454;6.736;2023-04-16T04:02:36;56.97;;;28.33;;
5351;SDS011;2698;51.454;6.736;2023-04-16T04:05:03;60.63;;;29.47;;
5351;SDS011;2698;51.454;6.736;2023-04-16T04:07:30;51.27;;;28.80;;
5351;SDS011;2698;51.454;6.736;2023-04-16T04:09:58;61.80;;;28.20;;
5351;SDS011;2698;51.454;6.736;2023-04-16T04:12:25;60.20;;;30.13;;
5351;SDS011;2698;51.454;6.736;2023-04-16T04:14:53;68.10;;;33.30;;
5351;SDS011;2698;51.454;6.736;2023-04-16T04:17:20;61.23;;;32.57;;
5351;SDS011;2698;51.454;6.736;2023-04-16T04:19:48;64.70;;;31.40;;
5351;SDS011;2698;51.454;6.736;2023-04-16T04:22:16;72.13;;;34.40;;
5351;SDS011;2698;51.454;6.736;2023-04-16T04:24:43;66.60;;;33.67;;
5351;SDS011;2698;51.454;6.736;2023-04-16T04:27:10;80.07;;;33.97;;
5351;SDS011;2698;51.454;6.736;2023-04-16T04:29:37;68.23;;;34.20;;
5351;SDS011;2698;51.454;6.736;2023-04-16T04:32:06;63.10;;;34.07;;
5351;SDS011;2698;51.454;6.736;2023-04-16T04:34:33;64.80;;;31.63;;
5351;SDS011;2698;51.454;6.736;2023-04-16T04:37:00;67.03;;;30.60;;
5351;SDS011;2698;51.454;6.736;2023-04-16T04:39:27;75.50;;;32.60;;
5351;SDS011;2698;51.454;6.736;2023-04-16T04:41:54;64.43;;;31.27;;
5351;SDS011;2698;51.454;6.736;2023-04-16T04:44:23;70.23;;;33.50;;
5351;SDS011;2698;51.454;6.736;2023-04-16T04:46:50;74.63;;;30.90;;
5351;SDS011;2698;51.454;6.736;2023-04-16T04:49:18;68.10;;;32.57;;
5351;SDS011;2698;51.454;6.736;2023-04-16T04:51:45;56.33;;;29.20;;
5351;SDS011;2698;51.454;6.736;2023-04-16T04:54:12;56.97;;;30.27;;
5351;SDS011;2698;51.454;6.736;2023-04-16T04:56:40;63.10;;;30.97;;
5351;SDS011;2698;51.454;6.736;2023-04-16T04:59:09;59.97;;;31.20;;
5351;SDS011;2698;51.454;6.736;2023-04-16T05:01:36;63.87;;;30.40;;
5351;SDS011;2698;51.454;6.736;2023-04-16T05:04:03;52.63;;;28.00;;
5351;SDS011;2698;51.454;6.736;2023-04-16T05:06:32;60.13;;;26.73;;
5351;SDS011;2698;51.454;6.736;2023-04-16T05:08:59;57.40;;;29.83;;
5351;SDS011;2698;51.454;6.736;2023-04-16T05:11:26;66.80;;;30.70;;
5351;SDS011;2698;51.454;6.736;2023-04-16T05:13:55;50.27;;;25.90;;
5351;SDS011;2698;51.454;6.736;2023-04-16T05:16:22;52.17;;;26.73;;
5351;SDS011;2698;51.454;6.736;2023-04-16T05:18:49;59.47;;;26.97;;
5351;SDS011;2698;51.454;6.736;2023-04-16T05:21:16;69.17;;;29.17;;
5351;SDS011;2698;51.454;6.736;2023-04-16T05:23:45;61.77;;;29.93;;
5351;SDS011;2698;51.454;6.736;2023-04-16T05:26:12;63.93;;;32.03;;
5351;SDS011;2698;51.454;6.736;2023-04-16T05:28:39;60.50;;;28.37;;
5351;SDS011;2698;51.454;6.736;2023-04-16T05:31:06;53.93;;;28.17;;
5351;SDS011;2698;51.454;6.736;2023-04-16T05:33:33;55.93;;;28.53;;
5351;SDS011;2698;51.454;6.736;2023-04-16T05:36:00;55.53;;;27.83;;
5351;SDS011;2698;51.454;6.736;2023-04-16T05:38:28;69.70;;;30.70;;
5351;SDS011;2698;51.454;6.736;2023-04-16T05:40:57;69.83;;;29.93;;
5351;SDS011;2698;51.454;6.736;2023-04-16T05:43:24;65.00;;;31.40;;
5351;SDS011;2698;51.454;6.736;2023-04-16T05:45:51;54.50;;;27.47;;
5351;SDS011;2698;51.454;6.736;2023-04-16T05:48:18;57.73;;;30.03;;
5351;SDS011;2698;51.454;6.736;2023-04-16T05:50:46;50.73;;;28.47;;
5351;SDS011;2698;51.454;6.736;2023-04-16T05:53:13;64.50;;;30.17;;
5351;SDS011;2698;51.454;6.736;2023-04-16T05:55:40;48.50;;;27.97;;
5351;SDS011;2698;51.454;6.736;2023-04-16T05:58:08;58.90;;;27.90;;
5351;SDS011;2698;51.454;6.736;2023-04-16T06:00:35;51.87;;;26.00;;
5351;SDS011;2698;51.454;6.736;2023-04-16T06:03:03;52.47;;;26.13;;
5351;SDS011;2698;51.454;6.736;2023-04-16T06:05:30;56.70;;;27.20;;
5351;SDS011;2698;51.454;6.736;2023-04-16T06:07:57;61.00;;;29.73;;
5351;SDS011;2698;51.454;6.736;2023-04-16T06:10:24;60.27;;;28.70;;
5351;SDS011;2698;51.454;6.736;2023-04-16T06:12:51;55.20;;;26.37;;
5351;SDS011;2698;51.454;6.736;2023-04-16T06:15:19;57.17;;;29.23;;
5351;SDS011;2698;51.454;6.736;2023-04-16T06:17:46;82.80;;;35.10;;
5351;SDS011;2698;51.454;6.736;2023-04-16T06:20:13;68.47;;;33.57;;
5351;SDS011;2698;51.454;6.736;2023-04-16T06:22:41;52.70;;;28.20;;
5351;SDS011;2698;51.454;6.736;2023-04-16T06:25:08;53.57;;;29.00;;
5351;SDS011;2698;51.454;6.736;2023-04-16T06:27:35;59.77;;;28.17;;
5351;SDS011;2698;51.454;6.736;2023-04-16T06:30:02;57.77;;;27.67;;
5351;SDS011;2698;51.454;6.736;2023-04-16T06:32:31;66.73;;;29.70;;
5351;SDS011;2698;51.454;6.736;2023-04-16T06:34:58;59.17;;;28.03;;
5351;SDS011;2698;51.454;6.736;2023-04-16T06:37:25;50.73;;;28.40;;
5351;SDS011;2698;51.454;6.736;2023-04-16T06:39:52;57.57;;;29.90;;
5351;SDS011;2698;51.454;6.736;2023-04-16T06:42:19;62.10;;;29.10;;
5351;SDS011;2698;51.454;6.736;2023-04-16T06:44:46;66.50;;;30.33;;
5351;SDS011;2698;51.454;6.736;2023-04-16T06:47:14;78.03;;;32.07;;
5351;SDS011;2698;51.454;6.736;2023-04-16T06:49:43;51.47;;;27.70;;
5351;SDS011;2698;51.454;6.736;2023-04-16T06:52:10;58.57;;;31.17;;
5351;SDS011;2698;51.454;6.736;2023-04-16T06:54:37;72.93;;;29.83;;
5351;SDS011;2698;51.454;6.736;2023-04-16T06:57:05;55.33;;;28.90;;
5351;SDS011;2698;51.454;6.736;2023-04-16T06:59:32;59.03;;;28.60;;
5351;SDS011;2698;51.454;6.736;2023-04-16T07:01:59;54.07;;;29.57;;
5351;SDS011;2698;51.454;6.736;2023-04-16T07:04:26;47.83;;;28.00;;
5351;SDS011;2698;51.454;6.736;2023-04-16T07:06:54;58.50;;;29.17;;
5351;SDS011;2698;51.454;6.736;2023-04-16T07:09:21;50.77;;;27.27;;
5351;SDS011;2698;51.454;6.736;2023-04-16T07:11:49;54.83;;;28.97;;
5351;SDS011;2698;51.454;6.736;2023-04-16T07:14:16;46.33;;;26.43;;
5351;SDS011;2698;51.454;6.736;2023-04-16T07:16:43;51.47;;;26.93;;
5351;SDS011;2698;51.454;6.736;2023-04-16T07:19:10;51.33;;;25.67;;
5351;SDS011;2698;51.454;6.736;2023-04-16T07:21:37;51.70;;;24.10;;
5351;SDS011;2698;51.454;6.736;2023-04-16T07:24:07;39.97;;;24.50;;
5351;SDS011;2698;51.454;6.736;2023-04-16T07:26:34;44.97;;;25.43;;
5351;SDS011;2698;51.454;6.736;2023-04-16T07:29:01;46.07;;;26.93;;
5351;SDS011;2698;51.454;6.736;2023-04-16T07:31:28;50.87;;;27.97;;
5351;SDS011;2698;51.454;6.736;2023-04-16T07:33:55;43.87;;;26.97;;
5351;SDS011;2698;51.454;6.736;2023-04-16T07:36:23;47.20;;;26.10;;
5351;SDS011;2698;51.454;6.736;2023-04-16T07:38:51;43.97;;;25.73;;
5351;SDS011;2698;51.454;6.736;2023-04-16T07:41:19;47.67;;;25.63;;
5351;SDS011;2698;51.454;6.736;2023-04-16T07:43:47;41.80;;;26.33;;
5351;SDS011;2698;51.454;6.736;2023-04-16T07:46:14;45.77;;;25.03;;
5351;SDS011;2698;51.454;6.736;2023-04-16T07:48:41;40.63;;;26.47;;
5351;SDS011;2698;51.454;6.736;2023-04-16T07:51:08;42.90;;;26.60;;
5351;SDS011;2698;51.454;6.736;2023-04-16T07:53:35;47.90;;;29.17;;
5351;SDS011;2698;51.454;6.736;2023-04-16T07:56:02;41.03;;;25.07;;
5351;SDS011;2698;51.454;6.736;2023-04-16T07:58:31;46.60;;;28.37;;
5351;SDS011;2698;51.454;6.736;2023-04-16T08:00:58;54.97;;;25.10;;
5351;SDS011;2698;51.454;6.736;2023-04-16T08:03:25;39.10;;;25.67;;
5351;SDS011;2698;51.454;6.736;2023-04-16T08:05:52;48.77;;;26.67;;
5351;SDS011;2698;51.454;6.736;2023-04-16T08:08:20;44.97;;;25.90;;
5351;SDS011;2698;51.454;6.736;2023-04-16T08:10:48;50.57;;;26.80;;
5351;SDS011;2698;51.454;6.736;2023-04-16T08:13:19;45.40;;;26.43;;
5351;SDS011;2698;51.454;6.736;2023-04-16T08:15:48;46.97;;;26.70;;
5351;SDS011;2698;51.454;6.736;2023-04-16T08:18:15;42.27;;;23.80;;
5351;SDS011;2698;51.454;6.736;2023-04-16T08:20:42;35.67;;;21.13;;
5351;SDS011;2698;51.454;6.736;2023-04-16T08:23:09;45.03;;;25.30;;
5351;SDS011;2698;51.454;6.736;2023-04-16T08:25:37;39.67;;;25.40;;
5351;SDS011;2698;51.454;6.736;2023-04-16T08:28:04;42.33;;;23.60;;
5351;SDS011;2698;51.454;6.736;2023-04-16T08:30:31;40.47;;;24.07;;
5351;SDS011;2698;51.454;6.736;2023-04-16T08:32:59;43.00;;;23.90;;
5351;SDS011;2698;51.454;6.736;2023-04-16T08:35:27;46.97;;;23.40;;
5351;SDS011;2698;51.454;6.736;2023-04-16T08:37:54;36.17;;;24.60;;
5351;SDS011;2698;51.454;6.736;2023-04-16T08:40:22;42.63;;;23.03;;
5351;SDS011;2698;51.454;6.736;2023-04-16T08:42:52;32.47;;;20.70;;
5351;SDS011;2698;51.454;6.736;2023-04-16T08:45:19;36.10;;;22.13;;
5351;SDS011;2698;51.454;6.736;2023-04-16T08:47:47;40.33;;;23.70;;
5351;SDS011;2698;51.454;6.736;2023-04-16T08:50:16;41.13;;;25.90;;
5351;SDS011;2698;51.454;6.736;2023-04-16T08:52:44;47.53;;;23.43;;
5351;SDS011;2698;51.454;6.736;2023-04-16T08:55:12;41.37;;;22.73;;
5351;SDS011;2698;51.454;6.736;2023-04-16T08:57:42;39.80;;;23.37;;
5351;SDS011;2698;51.454;6.736;2023-04-16T09:00:10;37.20;;;22.20;;
5351;SDS011;2698;51.454;6.736;2023-04-16T09:02:39;37.20;;;23.20;;
5351;SDS011;2698;51.454;6.736;2023-04-16T09:05:07;40.63;;;23.97;;
5351;SDS011;2698;51.454;6.736;2023-04-16T09:07:36;47.50;;;25.30;;
5351;SDS011;2698;51.454;6.736;2023-04-16T09:10:04;42.60;;;22.97;;
5351;SDS011;2698;51.454;6.736;2023-04-16T09:12:32;33.87;;;22.37;;
5351;SDS011;2698;51.454;6.736;2023-04-16T09:15:01;39.23;;;22.53;;
5351;SDS011;2698;51.454;6.736;2023-04-16T09:17:29;36.17;;;22.47;;
5351;SDS011;2698;51.454;6.736;2023-04-16T09:19:56;38.73;;;22.37;;
5351;SDS011;2698;51.454;6.736;2023-04-16T09:22:23;37.97;;;22.07;;
5351;SDS011;2698;51.454;6.736;2023-04-16T09:24:51;33.30;;;22.03;;
5351;SDS011;2698;51.454;6.736;2023-04-16T09:27:18;42.00;;;23.73;;
5351;SDS011;2698;51.454;6.736;2023-04-16T09:29:46;46.37;;;25.40;;
5351;SDS011;2698;51.454;6.736;2023-04-16T09:32:14;39.20;;;22.17;;
5351;SDS011;2698;51.454;6.736;2023-04-16T09:34:54;43.40;;;23.70;;
5351;SDS011;2698;51.454;6.736;2023-04-16T09:37:21;42.60;;;22.43;;
5351;SDS011;2698;51.454;6.736;2023-04-16T09:39:54;39.47;;;22.87;;
5351;SDS011;2698;51.454;6.736;2023-04-16T09:42:22;43.57;;;21.67;;
5351;SDS011;2698;51.454;6.736;2023-04-16T09:44:49;37.90;;;24.13;;
5351;SDS011;2698;51.454;6.736;2023-04-16T09:47:17;46.47;;;26.17;;
5351;SDS011;2698;51.454;6.736;2023-04-16T09:49:44;33.63;;;21.80;;
5351;SDS011;2698;51.454;6.736;2023-04-16T09:52:12;33.20;;;20.93;;
5351;SDS011;2698;51.454;6.736;2023-04-16T09:54:44;36.70;;;20.70;;
5351;SDS011;2698;51.454;6.736;2023-04-16T09:57:12;35.10;;;20.87;;
5351;SDS011;2698;51.454;6.736;2023-04-16T09:59:40;44.30;;;19.93;;
5351;SDS011;2698;51.454;6.736;2023-04-16T10:02:07;36.40;;;21.07;;
5351;SDS011;2698;51.454;6.736;2023-04-16T10:04:43;32.70;;;20.20;;
5351;SDS011;2698;51.454;6.736;2023-04-16T10:07:11;30.53;;;19.70;;
5351;SDS011;2698;51.454;6.736;2023-04-16T10:09:38;33.60;;;20.53;;
5351;SDS011;2698;51.454;6.736;2023-04-16T10:12:05;28.83;;;18.63;;
5351;SDS011;2698;51.454;6.736;2023-04-16T10:14:34;33.67;;;20.67;;
5351;SDS011;2698;51.454;6.736;2023-04-16T10:17:02;34.77;;;21.27;;
5351;SDS011;2698;51.454;6.736;2023-04-16T10:19:30;37.37;;;22.53;;
5351;SDS011;2698;51.454;6.736;2023-04-16T10:21:58;32.63;;;21.57;;
5351;SDS011;2698;51.454;6.736;2023-04-16T10:24:25;46.63;;;22.93;;
5351;SDS011;2698;51.454;6.736;2023-04-16T10:26:52;35.27;;;23.73;;
5351;SDS011;2698;51.454;6.736;2023-04-16T10:29:21;42.93;;;24.07;;
5351;SDS011;2698;51.454;6.736;2023-04-16T10:31:49;37.93;;;22.50;;
5351;SDS011;2698;51.454;6.736;2023-04-16T10:34:17;38.90;;;22.30;;
5351;SDS011;2698;51.454;6.736;2023-04-16T10:36:46;32.80;;;20.90;;
5351;SDS011;2698;51.454;6.736;2023-04-16T10:39:16;32.13;;;20.60;;
5351;SDS011;2698;51.454;6.736;2023-04-16T10:41:43;34.40;;;19.53;;
5351;SDS011;2698;51.454;6.736;2023-04-16T10:44:10;42.20;;;26.97;;
5351;SDS011;2698;51.454;6.736;2023-04-16T10:46:39;35.90;;;24.53;;
5351;SDS011;2698;51.454;6.736;2023-04-16T10:49:14;39.80;;;21.77;;
5351;SDS011;2698;51.454;6.736;2023-04-16T10:51:42;35.20;;;21.73;;
5351;SDS011;2698;51.454;6.736;2023-04-16T10:54:18;35.73;;;20.43;;
5351;SDS011;2698;51.454;6.736;2023-04-16T10:56:45;38.73;;;20.80;;
5351;SDS011;2698;51.454;6.736;2023-04-16T10:59:16;29.10;;;18.80;;
5351;SDS011;2698;51.454;6.736;2023-04-16T11:01:44;30.33;;;19.03;;
5351;SDS011;2698;51.454;6.736;2023-04-16T11:04:33;30.27;;;18.20;;
5351;SDS011;2698;51.454;6.736;2023-04-16T11:07:02;24.20;;;17.33;;
5351;SDS011;2698;51.454;6.736;2023-04-16T11:12:31;28.83;;;18.37;;
5351;SDS011;2698;51.454;6.736;2023-04-16T11:14:59;29.77;;;18.33;;
5351;SDS011;2698;51.454;6.736;2023-04-16T11:17:27;45.83;;;27.07;;
5351;SDS011;2698;51.454;6.736;2023-04-16T11:19:56;31.87;;;19.30;;
5351;SDS011;2698;51.454;6.736;2023-04-16T11:22:23;29.27;;;17.47;;
5351;SDS011;2698;51.454;6.736;2023-04-16T11:24:52;32.60;;;18.20;;
5351;SDS011;2698;51.454;6.736;2023-04-16T11:27:20;27.23;;;16.93;;
5351;SDS011;2698;51.454;6.736;2023-04-16T11:29:55;27.33;;;17.90;;
5351;SDS011;2698;51.454;6.736;2023-04-16T11:32:22;35.30;;;21.20;;
5351;SDS011;2698;51.454;6.736;2023-04-16T11:34:49;24.17;;;16.77;;
5351;SDS011;2698;51.454;6.736;2023-04-16T11:37:20;21.23;;;14.93;;
5351;SDS011;2698;51.454;6.736;2023-04-16T11:39:48;26.07;;;16.90;;
5351;SDS011;2698;51.454;6.736;2023-04-16T11:42:19;20.80;;;15.60;;
5351;SDS011;2698;51.454;6.736;2023-04-16T11:44:50;27.93;;;16.07;;
5351;SDS011;2698;51.454;6.736;2023-04-16T11:47:18;25.03;;;15.53;;
5351;SDS011;2698;51.454;6.736;2023-04-16T11:49:45;22.10;;;16.17;;
5351;SDS011;2698;51.454;6.736;2023-04-16T11:52:12;24.27;;;17.20;;
5351;SDS011;2698;51.454;6.736;2023-04-16T11:54:40;20.77;;;15.40;;
5351;SDS011;2698;51.454;6.736;2023-04-16T11:57:07;23.93;;;15.83;;
5351;SDS011;2698;51.454;6.736;2023-04-16T11:59:35;21.27;;;15.77;;
5351;SDS011;2698;51.454;6.736;2023-04-16T12:02:02;21.33;;;15.10;;
5351;SDS011;2698;51.454;6.736;2023-04-16T12:04:32;21.33;;;14.10;;
5351;SDS011;2698;51.454;6.736;2023-04-16T12:07:05;27.97;;;14.77;;
5351;SDS011;2698;51.454;6.736;2023-04-16T12:09:33;20.20;;;13.83;;
5351;SDS011;2698;51.454;6.736;2023-04-16T12:12:02;24.47;;;16.97;;
5351;SDS011;2698;51.454;6.736;2023-04-16T12:14:29;32.63;;;16.07;;
5351;SDS011;2698;51.454;6.736;2023-04-16T12:17:01;23.90;;;15.00;;
5351;SDS011;2698;51.454;6.736;2023-04-16T12:19:47;23.33;;;15.80;;
5351;SDS011;2698;51.454;6.736;2023-04-16T12:22:14;23.73;;;15.13;;
5351;SDS011;2698;51.454;6.736;2023-04-16T12:24:41;21.03;;;17.00;;
5351;SDS011;2698;51.454;6.736;2023-04-16T12:27:09;25.90;;;15.77;;
5351;SDS011;2698;51.454;6.736;2023-04-16T12:29:37;23.03;;;17.17;;
5351;SDS011;2698;51.454;6.736;2023-04-16T12:32:04;20.83;;;15.97;;
5351;SDS011;2698;51.454;6.736;2023-04-16T12:34:31;20.00;;;14.77;;
5351;SDS011;2698;51.454;6.736;2023-04-16T12:37:05;23.43;;;16.47;;
5351;SDS011;2698;51.454;6.736;2023-04-16T12:39:33;21.73;;;15.57;;
5351;SDS011;2698;51.454;6.736;2023-04-16T12:42:00;19.83;;;15.67;;
5351;SDS011;2698;51.454;6.736;2023-04-16T12:44:30;19.30;;;15.37;;
5351;SDS011;2698;51.454;6.736;2023-04-16T12:46:57;21.00;;;16.47;;
5351;SDS011;2698;51.454;6.736;2023-04-16T12:49:24;21.67;;;14.80;;
5351;SDS011;2698;51.454;6.736;2023-04-16T12:51:52;25.43;;;16.90;;
5351;SDS011;2698;51.454;6.736;2023-04-16T12:54:19;27.73;;;17.97;;
5351;SDS011;2698;51.454;6.736;2023-04-16T12:56:46;20.87;;;16.30;;
5351;SDS011;2698;51.454;6.736;2023-04-16T12:59:13;27.13;;;17.50;;
5351;SDS011;2698;51.454;6.736;2023-04-16T13:01:43;20.27;;;14.93;;
5351;SDS011;2698;51.454;6.736;2023-04-16T13:04:10;23.13;;;16.90;;
5351;SDS011;2698;51.454;6.736;2023-04-16T13:06:37;22.10;;;16.73;;
5351;SDS011;2698;51.454;6.736;2023-04-16T13:09:04;18.97;;;16.00;;
5351;SDS011;2698;51.454;6.736;2023-04-16T13:11:31;22.07;;;15.77;;
5351;SDS011;2698;51.454;6.736;2023-04-16T13:13:58;18.87;;;14.97;;
5351;SDS011;2698;51.454;6.736;2023-04-16T13:16:25;21.47;;;17.53;;
5351;SDS011;2698;51.454;6.736;2023-04-16T13:18:55;23.63;;;17.60;;
5351;SDS011;2698;51.454;6.736;2023-04-16T13:21:23;26.70;;;18.10;;
5351;SDS011;2698;51.454;6.736;2023-04-16T13:23:51;32.00;;;17.57;;
5351;SDS011;2698;51.454;6.736;2023-04-16T13:26:18;30.03;;;17.80;;
5351;SDS011;2698;51.454;6.736;2023-04-16T13:28:46;23.43;;;16.80;;
5351;SDS011;2698;51.454;6.736;2023-04-16T13:31:13;22.23;;;15.87;;
5351;SDS011;2698;51.454;6.736;2023-04-16T13:33:43;21.70;;;15.60;;
5351;SDS011;2698;51.454;6.736;2023-04-16T13:36:12;24.10;;;17.50;;
5351;SDS011;2698;51.454;6.736;2023-04-16T13:38:39;21.70;;;17.60;;
5351;SDS011;2698;51.454;6.736;2023-04-16T13:41:06;30.60;;;17.80;;
5351;SDS011;2698;51.454;6.736;2023-04-16T13:43:33;41.00;;;19.10;;
5351;SDS011;2698;51.454;6.736;2023-04-16T13:46:00;31.53;;;17.10;;
5351;SDS011;2698;51.454;6.736;2023-04-16T13:48:27;34.03;;;18.60;;
5351;SDS011;2698;51.454;6.736;2023-04-16T13:50:54;27.80;;;18.90;;
5351;SDS011;2698;51.454;6.736;2023-04-16T13:53:23;26.60;;;17.73;;
5351;SDS011;2698;51.454;6.736;2023-04-16T13:55:50;33.33;;;18.20;;
5351;SDS011;2698;51.454;6.736;2023-04-16T13:58:17;24.70;;;17.03;;
5351;SDS011;2698;51.454;6.736;2023-04-16T14:00:45;27.10;;;16.40;;
5351;SDS011;2698;51.454;6.736;2023-04-16T14:03:12;19.53;;;15.03;;
5351;SDS011;2698;51.454;6.736;2023-04-16T14:05:40;25.23;;;17.17;;
5351;SDS011;2698;51.454;6.736;2023-04-16T14:08:07;38.00;;;17.70;;
5351;SDS011;2698;51.454;6.736;2023-04-16T14:10:36;24.93;;;17.67;;
5351;SDS011;2698;51.454;6.736;2023-04-16T14:13:03;32.30;;;15.53;;
5351;SDS011;2698;51.454;6.736;2023-04-16T14:15:30;23.63;;;17.00;;
5351;SDS011;2698;51.454;6.736;2023-04-16T14:17:57;24.40;;;15.97;;
5351;SDS011;2698;51.454;6.736;2023-04-16T14:20:25;19.70;;;14.70;;
5351;SDS011;2698;51.454;6.736;2023-04-16T14:22:52;24.40;;;16.80;;
5351;SDS011;2698;51.454;6.736;2023-04-16T14:25:19;24.10;;;17.33;;
5351;SDS011;2698;51.454;6.736;2023-04-16T14:27:47;32.33;;;18.13;;
5351;SDS011;2698;51.454;6.736;2023-04-16T14:30:15;24.63;;;15.97;;
5351;SDS011;2698;51.454;6.736;2023-04-16T14:32:42;24.67;;;17.87;;
5351;SDS011;2698;51.454;6.736;2023-04-16T14:35:09;24.10;;;17.57;;
5351;SDS011;2698;51.454;6.736;2023-04-16T14:37:36;22.73;;;15.53;;
5351;SDS011;2698;51.454;6.736;2023-04-16T14:40:04;23.00;;;18.23;;
5351;SDS011;2698;51.454;6.736;2023-04-16T14:42:32;26.20;;;17.43;;
5351;SDS011;2698;51.454;6.736;2023-04-16T14:45:01;21.60;;;16.70;;
5351;SDS011;2698;51.454;6.736;2023-04-16T14:47:30;33.47;;;16.53;;
5351;SDS011;2698;51.454;6.736;2023-04-16T14:49:57;23.90;;;17.13;;
5351;SDS011;2698;51.454;6.736;2023-04-16T14:52:24;24.50;;;16.20;;
5351;SDS011;2698;51.454;6.736;2023-04-16T14:54:51;25.97;;;16.13;;